EGEC/CAL METAR and TAF weather

Enter ICAO airport designator
Station Type Date Time Source
EGEC METAR 2019/02/20 07:50 UTC NOAA

EGEC 200750Z 13006KT 9999 FEW012 BKN015 10/08 Q1005


Station Type Date Time Source
EGEC Decoded METAR 2019/02/20 07:50 UTC NOAA

Campbeltown, United Kingdom (EGEC) 55-26-14N 005-41-11W
Feb 20, 2019 - 02:50 AM EST / 2019.02.20 0750 UTC
Wind: from the SE (130 degrees) at 7 MPH (6 KT):0
Visibility: greater than 7 mile(s):0
Sky conditions: mostly cloudy
Temperature: 50 F (10 C)
Dew Point: 46 F (8 C)
Relative Humidity: 87%
Pressure (altimeter): 29.68 in. Hg (1005 hPa)
ob: EGEC 200750Z 13006KT 9999 FEW012 BKN015 10/08 Q1005
cycle: 8

Station Type Date Time Source
EGEC TAF UTC NOAA

Error!


Example: see airport list